createdAt,value
2018-11-04T00:00:07.549Z,22.43
2018-11-04T00:02:14.214Z,23.70
2018-11-04T00:04:19.247Z,25.53
2018-11-04T00:06:24.421Z,21.93
2018-11-04T00:08:54.296Z,21.90
2018-11-04T00:10:58.483Z,25.70
2018-11-04T00:13:03.409Z,23.73
2018-11-04T00:15:08.408Z,23.87
2018-11-04T00:17:15.037Z,22.00
2018-11-04T00:19:19.216Z,24.03
2018-11-04T00:21:23.272Z,22.73
2018-11-04T00:23:27.280Z,23.63
2018-11-04T00:25:34.082Z,25.80
2018-11-04T00:27:38.603Z,22.87
2018-11-04T00:29:42.608Z,26.57
2018-11-04T00:31:46.716Z,22.93
2018-11-04T00:33:51.341Z,23.67
2018-11-04T00:35:55.318Z,23.03
2018-11-04T00:38:07.596Z,22.10
2018-11-04T00:40:13.370Z,24.53
2018-11-04T00:42:18.545Z,25.53
2018-11-04T00:44:22.538Z,23.83
2018-11-04T00:46:29.339Z,22.53
2018-11-04T00:48:33.401Z,24.50
2018-11-04T00:50:37.317Z,23.40
2018-11-04T00:52:45.379Z,24.47
2018-11-04T00:54:50.394Z,26.63
2018-11-04T00:56:54.424Z,23.37
2018-11-04T00:59:00.483Z,26.37
2018-11-04T01:01:04.667Z,25.90
2018-11-04T01:03:08.919Z,25.13
2018-11-04T01:05:13.775Z,26.00
2018-11-04T01:07:20.308Z,24.63
2018-11-04T01:09:24.251Z,25.20
2018-11-04T01:11:28.224Z,29.37
2018-11-04T01:13:32.761Z,26.40
2018-11-04T01:15:36.736Z,25.67
2018-11-04T01:17:42.331Z,24.83
2018-11-04T01:19:46.316Z,26.07
2018-11-04T01:21:50.281Z,25.77
2018-11-04T01:23:54.266Z,26.73
2018-11-04T01:26:10.731Z,25.43
2018-11-04T01:28:14.619Z,25.67
2018-11-04T01:30:18.891Z,28.50
2018-11-04T01:32:23.240Z,26.17
2018-11-04T01:34:27.776Z,23.70
2018-11-04T01:36:31.924Z,28.53
2018-11-04T01:38:37.803Z,27.00
2018-11-04T01:40:41.828Z,26.10
2018-11-04T01:42:47.955Z,24.97
2018-11-04T01:44:53.707Z,27.60
2018-11-04T01:47:00.464Z,28.47
2018-11-04T01:49:05.972Z,28.83
2018-11-04T01:51:14.431Z,27.33
2018-11-04T01:53:20.447Z,29.00
2018-11-04T01:55:24.856Z,27.50
2018-11-04T01:57:28.788Z,28.70
2018-11-04T01:59:33.577Z,27.57
2018-11-04T02:01:39.265Z,27.47
2018-11-04T02:03:43.201Z,28.63
2018-11-04T02:05:47.192Z,25.87
2018-11-04T02:07:53.099Z,28.30
2018-11-04T02:09:57.556Z,28.17
2018-11-04T02:12:02.187Z,29.97
2018-11-04T02:14:07.159Z,28.87
2018-11-04T02:16:12.731Z,28.70
2018-11-04T02:18:17.111Z,30.57
2018-11-04T02:20:22.480Z,27.90
2018-11-04T02:22:26.450Z,27.53
2018-11-04T02:24:30.413Z,28.90
2018-11-04T02:26:39.445Z,30.37
2018-11-04T02:28:46.001Z,28.00
2018-11-04T02:30:50.451Z,28.07
2018-11-04T02:32:55.308Z,28.77
2018-11-04T02:34:59.254Z,28.03
2018-11-04T02:37:04.519Z,28.73
2018-11-04T02:39:09.538Z,27.90
2018-11-04T02:41:13.484Z,31.97
2018-11-04T02:43:18.886Z,30.43
2018-11-04T02:45:25.820Z,28.47
2018-11-04T02:47:30.250Z,31.80
2018-11-04T02:49:34.247Z,29.37
2018-11-04T02:51:40.262Z,28.27
2018-11-04T02:53:46.032Z,28.80
2018-11-04T02:55:49.947Z,30.30
2018-11-04T02:57:53.968Z,30.77
2018-11-04T02:59:57.991Z,28.50
2018-11-04T03:02:02.088Z,31.20
2018-11-04T03:04:06.096Z,26.83
2018-11-04T03:06:10.091Z,30.30
2018-11-04T03:08:14.134Z,29.67
2018-11-04T03:10:19.596Z,29.37
2018-11-04T03:12:23.964Z,29.33
2018-11-04T03:14:27.987Z,29.23
2018-11-04T03:16:32.262Z,29.27
2018-11-04T03:18:36.240Z,29.70
2018-11-04T03:20:41.720Z,30.60
2018-11-04T03:22:45.718Z,31.87
2018-11-04T03:24:51.431Z,33.93
2018-11-04T03:26:55.440Z,29.20
2018-11-04T03:28:59.343Z,29.07
2018-11-04T03:31:04.732Z,32.53
2018-11-04T03:33:09.392Z,32.70
2018-11-04T03:35:13.632Z,32.13
2018-11-04T03:37:17.663Z,32.00
2018-11-04T03:39:21.594Z,31.20
2018-11-04T03:41:25.624Z,28.67
2018-11-04T03:43:31.179Z,33.27
2018-11-04T03:45:35.251Z,32.03
2018-11-04T03:47:41.518Z,33.33
2018-11-04T03:49:46.291Z,30.73
2018-11-04T03:51:51.059Z,35.37
2018-11-04T03:53:55.036Z,31.47
2018-11-04T03:55:58.989Z,33.47
2018-11-04T03:58:04.121Z,33.07
2018-11-04T04:00:12.835Z,31.27
2018-11-04T04:02:16.868Z,31.47
2018-11-04T04:04:20.982Z,29.33
2018-11-04T04:06:26.018Z,33.87
2018-11-04T04:08:29.991Z,35.80
2018-11-04T04:10:33.964Z,37.30
2018-11-04T04:12:38.335Z,33.43
2018-11-04T04:14:43.397Z,32.40
2018-11-04T04:16:47.439Z,35.67
2018-11-04T04:18:51.420Z,37.20
2018-11-04T04:21:08.395Z,33.33
2018-11-04T04:23:13.182Z,34.90
2018-11-04T04:25:17.108Z,33.23
2018-11-04T04:27:21.535Z,33.80
2018-11-04T04:29:25.576Z,35.30
2018-11-04T04:31:29.882Z,33.70
2018-11-04T04:33:33.948Z,38.53
2018-11-04T04:35:38.064Z,36.90
2018-11-04T04:37:43.132Z,39.40
2018-11-04T04:39:47.527Z,36.40
2018-11-04T04:41:51.497Z,34.73
2018-11-04T04:43:58.447Z,35.77
2018-11-04T04:46:02.391Z,36.90
2018-11-04T04:48:06.913Z,36.00
2018-11-04T04:50:12.539Z,37.03
2018-11-04T04:52:17.667Z,35.97
2018-11-04T04:54:21.683Z,38.30
2018-11-04T04:56:26.262Z,37.17
2018-11-04T04:58:30.238Z,37.07
2018-11-04T05:00:34.903Z,33.03
2018-11-04T05:02:39.544Z,34.47
2018-11-04T05:04:43.509Z,35.27
2018-11-04T05:06:47.467Z,33.83
2018-11-04T05:08:51.496Z,36.77
2018-11-04T05:10:58.838Z,35.10
2018-11-04T05:13:04.232Z,33.73
2018-11-04T05:15:08.621Z,33.37
2018-11-04T05:17:14.084Z,38.13
2018-11-04T05:19:18.111Z,34.60
2018-11-04T05:21:25.387Z,35.33
2018-11-04T05:23:30.346Z,36.00
2018-11-04T05:25:34.276Z,33.87
2018-11-04T05:27:38.287Z,37.70
2018-11-04T05:29:42.381Z,39.20
2018-11-04T05:31:47.287Z,35.67
2018-11-04T05:33:51.279Z,36.10
2018-11-04T05:35:55.301Z,33.77
2018-11-04T05:38:00.872Z,37.10
2018-11-04T05:40:05.996Z,35.83
2018-11-04T05:42:09.984Z,37.03
2018-11-04T05:44:14.924Z,36.43
2018-11-04T05:46:18.877Z,38.20
2018-11-04T05:48:22.859Z,36.30
2018-11-04T05:50:26.868Z,37.27
2018-11-04T05:52:30.939Z,38.37
2018-11-04T05:54:34.950Z,34.80
2018-11-04T05:56:42.433Z,37.23
2018-11-04T05:58:46.862Z,36.17
2018-11-04T06:00:51.169Z,39.83
2018-11-04T06:02:57.413Z,38.97
2018-11-04T06:05:01.883Z,39.27
2018-11-04T06:07:06.967Z,38.67
2018-11-04T06:09:11.359Z,38.47
2018-11-04T06:11:15.255Z,35.63
2018-11-04T06:13:19.175Z,36.97
2018-11-04T06:15:24.967Z,39.93
2018-11-04T06:17:28.986Z,40.40
2018-11-04T06:19:32.981Z,37.30
2018-11-04T06:21:36.907Z,37.07
2018-11-04T06:23:40.919Z,37.63
2018-11-04T06:25:44.988Z,37.57
2018-11-04T06:27:49.135Z,38.23
2018-11-04T06:29:53.073Z,39.23
2018-11-04T06:31:57.129Z,38.53
2018-11-04T06:34:01.091Z,37.67
2018-11-04T06:36:05.457Z,35.63
2018-11-04T06:38:09.430Z,37.33
2018-11-04T06:40:13.439Z,36.90
2018-11-04T06:42:17.508Z,33.33
2018-11-04T06:44:23.021Z,37.60
2018-11-04T06:46:27.179Z,38.47
2018-11-04T06:48:31.315Z,37.50
2018-11-04T06:50:35.364Z,38.93
2018-11-04T06:52:39.729Z,36.83
2018-11-04T06:54:43.693Z,40.77
2018-11-04T06:56:47.693Z,38.47
2018-11-04T06:58:52.228Z,38.23
2018-11-04T07:00:56.549Z,37.80
2018-11-04T07:03:00.523Z,36.70
2018-11-04T07:05:05.732Z,39.23
2018-11-04T07:07:09.727Z,37.57
2018-11-04T07:09:14.851Z,42.87
2018-11-04T07:11:18.787Z,35.93
2018-11-04T07:13:23.758Z,41.20
2018-11-04T07:15:28.711Z,36.87
2018-11-04T07:17:32.747Z,40.73
2018-11-04T07:19:36.651Z,38.13
2018-11-04T07:21:40.873Z,42.70
2018-11-04T07:23:44.901Z,39.47
2018-11-04T07:25:48.975Z,39.23
2018-11-04T07:27:52.844Z,39.13
2018-11-04T07:29:56.869Z,38.00
2018-11-04T07:32:08.126Z,36.23
2018-11-04T07:34:12.266Z,38.20
2018-11-04T07:36:23.015Z,39.70
2018-11-04T07:38:29.515Z,38.00
2018-11-04T07:40:37.398Z,42.53
2018-11-04T07:42:41.742Z,41.67
2018-11-04T07:44:46.484Z,40.00
2018-11-04T07:46:55.933Z,40.03
2018-11-04T07:49:01.117Z,39.33
2018-11-04T07:51:05.155Z,37.73
2018-11-04T07:53:09.262Z,39.17
2018-11-04T07:55:15.695Z,40.10
2018-11-04T07:57:19.682Z,41.07
2018-11-04T07:59:24.669Z,40.90
2018-11-04T08:01:28.778Z,40.57
2018-11-04T08:03:33.725Z,36.50
2018-11-04T08:05:37.674Z,41.63
2018-11-04T08:07:42.415Z,41.07
2018-11-04T08:09:46.367Z,40.93
2018-11-04T08:11:50.317Z,40.03
2018-11-04T08:13:54.468Z,38.50
2018-11-04T08:15:58.920Z,37.07
2018-11-04T08:18:03.864Z,40.63
2018-11-04T08:20:08.449Z,38.60
2018-11-04T08:22:13.548Z,37.90
2018-11-04T08:24:17.863Z,37.53
2018-11-04T08:26:24.482Z,36.27
2018-11-04T08:28:29.500Z,38.50
2018-11-04T08:30:34.768Z,37.67
2018-11-04T08:32:42.662Z,37.83
2018-11-04T08:34:48.087Z,36.67
2018-11-04T08:36:54.543Z,41.57
2018-11-04T08:38:59.198Z,39.37
2018-11-04T08:41:07.379Z,40.17
2018-11-04T08:43:12.739Z,38.70
2018-11-04T08:45:17.603Z,38.20
2018-11-04T08:47:22.256Z,38.70
2018-11-04T08:49:29.428Z,37.37
2018-11-04T08:51:40.983Z,39.07
2018-11-04T08:53:47.114Z,41.57
2018-11-04T08:55:51.749Z,40.20
2018-11-04T08:57:59.189Z,37.80
2018-11-04T09:00:05.514Z,39.97
2018-11-04T09:02:10.211Z,40.37
2018-11-04T09:04:16.071Z,40.47
2018-11-04T09:06:22.081Z,36.83
2018-11-04T09:08:38.393Z,45.87
2018-11-04T09:10:44.335Z,38.13
2018-11-04T09:12:51.416Z,37.63
2018-11-04T09:14:57.588Z,41.27
2018-11-04T09:17:02.984Z,40.30
2018-11-04T09:19:15.483Z,35.80
2018-11-04T09:21:20.806Z,42.10
2018-11-04T09:23:26.381Z,39.27
2018-11-04T09:25:31.296Z,35.97
2018-11-04T09:27:37.372Z,38.60
2018-11-04T09:29:41.411Z,36.67
2018-11-04T09:31:46.172Z,38.20
2018-11-04T09:33:50.108Z,41.90
2018-11-04T09:35:54.910Z,37.47
2018-11-04T09:37:58.891Z,39.07
2018-11-04T09:40:05.715Z,38.53
2018-11-04T09:42:10.823Z,39.63
2018-11-04T09:44:14.862Z,44.50
2018-11-04T09:46:20.521Z,36.40
2018-11-04T09:48:27.060Z,38.60
2018-11-04T09:50:30.984Z,35.77
2018-11-04T09:52:34.938Z,39.63
2018-11-04T09:54:39.541Z,39.30
2018-11-04T09:56:44.560Z,39.63
2018-11-04T10:01:07.546Z,40.03
2018-11-04T10:03:11.528Z,37.80
2018-11-04T10:05:16.139Z,38.90
2018-11-04T10:07:22.381Z,39.30
2018-11-04T10:09:31.979Z,41.87
2018-11-04T10:11:36.691Z,40.93
2018-11-04T10:13:41.460Z,37.73
2018-11-04T10:15:46.312Z,39.67
2018-11-04T10:17:51.945Z,39.63
2018-11-04T10:19:56.014Z,38.00
2018-11-04T10:22:01.007Z,37.00
2018-11-04T10:24:05.813Z,36.53
2018-11-04T10:26:12.310Z,36.60
2018-11-04T10:28:16.908Z,35.93
2018-11-04T10:30:24.849Z,41.23
2018-11-04T10:32:30.677Z,41.40
2018-11-04T10:34:38.135Z,35.23
2018-11-04T10:36:43.264Z,38.20
2018-11-04T10:38:47.222Z,38.53
2018-11-04T10:40:53.812Z,36.00
2018-11-04T10:42:58.275Z,37.87
2018-11-04T10:45:02.199Z,37.53
2018-11-04T10:47:06.470Z,35.07
2018-11-04T10:49:12.197Z,38.30
2018-11-04T10:51:16.255Z,39.77
2018-11-04T10:53:20.943Z,36.70
2018-11-04T10:55:33.738Z,36.87
2018-11-04T10:57:37.825Z,36.60
2018-11-04T10:59:43.151Z,37.17
2018-11-04T11:01:50.251Z,34.43
2018-11-04T11:03:54.763Z,35.97
2018-11-04T11:05:58.747Z,36.23
2018-11-04T11:08:02.772Z,36.73
2018-11-04T11:10:09.219Z,33.77
2018-11-04T11:12:13.840Z,37.10
2018-11-04T11:14:17.988Z,39.03
2018-11-04T11:16:23.678Z,34.27
2018-11-04T11:18:28.116Z,37.27
2018-11-04T11:20:35.432Z,36.93
2018-11-04T11:22:41.722Z,32.10
2018-11-04T11:24:45.841Z,35.10
2018-11-04T11:26:49.807Z,35.83
2018-11-04T11:28:55.238Z,37.73
2018-11-04T11:30:59.586Z,34.73
2018-11-04T11:33:06.807Z,35.00
2018-11-04T11:35:13.090Z,39.23
2018-11-04T11:37:18.024Z,35.23
2018-11-04T11:39:22.311Z,34.77
2018-11-04T11:41:26.323Z,36.83
2018-11-04T11:43:31.115Z,34.27
2018-11-04T11:45:36.275Z,32.67
2018-11-04T11:47:42.375Z,32.73
2018-11-04T11:49:48.427Z,31.53
2018-11-04T11:51:53.923Z,33.50
2018-11-04T11:53:59.930Z,35.57
2018-11-04T11:56:04.243Z,31.63
2018-11-04T11:58:10.328Z,32.70
2018-11-04T12:00:15.947Z,29.50
2018-11-04T12:02:20.122Z,32.73
2018-11-04T12:04:26.590Z,34.20
2018-11-04T12:06:31.498Z,32.07
2018-11-04T12:08:37.955Z,34.30
2018-11-04T12:10:44.411Z,29.30
2018-11-04T12:12:48.356Z,32.40
2018-11-04T12:14:53.961Z,30.27
2018-11-04T12:16:58.571Z,28.30
2018-11-04T12:19:09.192Z,29.63
2018-11-04T12:21:13.147Z,31.57
2018-11-04T12:23:17.340Z,30.67
2018-11-04T12:25:22.564Z,31.13
2018-11-04T12:27:29.216Z,31.57
2018-11-04T12:29:33.324Z,28.77
2018-11-04T12:31:37.662Z,29.23
2018-11-04T12:33:52.403Z,31.80
2018-11-04T12:36:18.265Z,30.00
2018-11-04T12:38:22.280Z,31.73
2018-11-04T12:40:26.282Z,29.93
2018-11-04T12:42:30.400Z,31.30
2018-11-04T12:44:37.703Z,31.97
2018-11-04T12:46:42.032Z,30.20
2018-11-04T12:48:46.012Z,31.60
2018-11-04T12:50:56.176Z,29.30
2018-11-04T12:53:00.162Z,29.20
2018-11-04T12:55:07.196Z,28.57
2018-11-04T12:57:12.386Z,29.63
2018-11-04T12:59:17.579Z,27.03
2018-11-04T13:01:25.985Z,29.77
2018-11-04T13:03:30.000Z,29.07
2018-11-04T13:05:35.782Z,26.97
2018-11-04T13:07:46.812Z,33.77
2018-11-04T13:09:51.464Z,28.07
2018-11-04T13:11:56.305Z,28.60
2018-11-04T13:15:03.799Z,27.53
2018-11-04T13:17:09.100Z,28.47
2018-11-04T13:19:20.451Z,27.27
2018-11-04T13:21:25.541Z,28.47
2018-11-04T13:23:33.598Z,25.50
2018-11-04T13:25:41.985Z,24.17
2018-11-04T13:27:45.974Z,26.63
2018-11-04T13:29:55.306Z,24.37
2018-11-04T13:32:01.168Z,27.13
2018-11-04T13:34:06.472Z,27.57
2018-11-04T13:36:10.547Z,31.40
2018-11-04T13:38:16.259Z,25.63
2018-11-04T13:40:23.041Z,25.50
2018-11-04T13:42:29.301Z,24.77
2018-11-04T13:44:33.336Z,26.53
2018-11-04T13:46:40.851Z,24.63
2018-11-04T13:48:47.227Z,25.93
2018-11-04T13:50:52.050Z,26.13
2018-11-04T13:52:56.077Z,24.10
2018-11-04T13:55:01.072Z,26.33
2018-11-04T13:57:05.827Z,24.10
2018-11-04T13:59:09.819Z,25.30
2018-11-04T14:01:13.872Z,25.87
2018-11-04T14:03:18.904Z,25.07
2018-11-04T14:05:25.679Z,22.93
2018-11-04T14:07:29.735Z,25.20
2018-11-04T14:09:36.235Z,20.87
2018-11-04T14:11:42.233Z,22.27
2018-11-04T14:13:46.356Z,22.60
2018-11-04T14:15:50.863Z,24.03
2018-11-04T14:17:54.866Z,24.20
2018-11-04T14:20:00.363Z,20.63
2018-11-04T14:22:04.336Z,21.97
2018-11-04T14:24:08.442Z,25.37
2018-11-04T14:26:13.410Z,23.73
2018-11-04T14:28:18.461Z,21.20
2018-11-04T14:30:24.573Z,22.40
2018-11-04T14:32:28.600Z,21.63
2018-11-04T14:34:33.552Z,21.30
2018-11-04T14:36:38.230Z,21.50
2018-11-04T14:38:46.435Z,20.20
2018-11-04T14:40:51.595Z,20.43
2018-11-04T14:43:01.325Z,21.33
2018-11-04T14:45:07.274Z,21.47
2018-11-04T14:47:11.219Z,20.77
2018-11-04T14:49:15.599Z,20.63
2018-11-04T14:51:21.025Z,20.30
2018-11-04T14:53:24.926Z,20.77
2018-11-04T14:55:28.944Z,19.10
2018-11-04T14:57:33.649Z,18.63
2018-11-04T14:59:43.613Z,18.70
2018-11-04T15:01:49.533Z,17.60
2018-11-04T15:03:54.334Z,17.43
2018-11-04T15:05:58.635Z,16.87
2018-11-04T15:08:04.599Z,18.00
2018-11-04T15:10:11.140Z,18.57
2018-11-04T15:12:16.919Z,18.30
2018-11-04T15:14:21.464Z,18.60
2018-11-04T15:16:26.669Z,17.00
2018-11-04T15:18:30.704Z,19.40
2018-11-04T15:20:34.651Z,15.30
2018-11-04T15:22:42.670Z,16.67
2018-11-04T15:24:48.253Z,15.83
2018-11-04T15:26:52.211Z,15.13
2018-11-04T15:28:56.776Z,15.33
2018-11-04T15:31:01.260Z,17.63
2018-11-04T15:33:11.093Z,14.83
2018-11-04T15:37:32.045Z,14.10
2018-11-04T15:39:36.380Z,12.60
2018-11-04T15:41:41.042Z,14.57
2018-11-04T15:43:46.990Z,14.20
2018-11-04T15:45:52.779Z,13.10
2018-11-04T15:47:57.383Z,10.73
2018-11-04T15:50:01.696Z,11.40
2018-11-04T15:52:06.622Z,12.27
2018-11-04T15:54:11.559Z,12.00
2018-11-04T15:56:16.820Z,11.13
2018-11-04T15:58:22.658Z,12.43
2018-11-04T16:00:28.428Z,11.87
2018-11-04T16:02:32.412Z,11.43
2018-11-04T16:04:44.543Z,11.37
2018-11-04T16:06:43.255Z,11.40
2018-11-04T16:08:48.196Z,12.13
2018-11-04T16:10:55.208Z,13.13
2018-11-04T16:12:59.244Z,13.73
2018-11-04T16:15:03.281Z,13.73
2018-11-04T16:17:10.403Z,12.30
2018-11-04T16:19:14.357Z,13.57
2018-11-04T16:21:19.050Z,12.17
2018-11-04T16:23:28.470Z,14.03
2018-11-04T16:25:34.285Z,12.60
2018-11-04T16:27:40.892Z,13.20
2018-11-04T16:29:46.210Z,13.10
2018-11-04T16:31:50.768Z,15.40
2018-11-04T16:33:54.753Z,11.73
2018-11-04T16:35:59.419Z,11.97
2018-11-04T16:38:06.352Z,13.80
2018-11-04T16:40:10.584Z,11.07
2018-11-04T16:42:15.812Z,12.00
2018-11-04T16:44:22.626Z,11.57
2018-11-04T16:46:29.315Z,13.60
2018-11-04T16:48:34.188Z,11.97
2018-11-04T16:50:38.307Z,13.37
2018-11-04T16:52:45.824Z,11.47
2018-11-04T16:54:51.331Z,11.03
2018-11-04T16:56:59.383Z,13.23
2018-11-04T16:59:04.712Z,12.57
2018-11-04T17:01:09.641Z,11.30
2018-11-04T17:03:14.468Z,12.10
2018-11-04T17:05:19.678Z,12.53
2018-11-04T17:07:24.367Z,11.77
2018-11-04T17:09:30.367Z,11.57
2018-11-04T17:11:35.802Z,11.60
2018-11-04T17:13:40.445Z,11.67
2018-11-04T17:15:45.458Z,13.67
2018-11-04T17:17:49.498Z,12.73
2018-11-04T17:19:53.568Z,11.97
2018-11-04T17:22:00.695Z,12.10
2018-11-04T17:24:05.716Z,13.40
2018-11-04T17:26:21.211Z,13.90
2018-11-04T17:28:26.759Z,14.73
2018-11-04T17:30:32.304Z,13.50
2018-11-04T17:32:37.099Z,13.93
2018-11-04T17:34:41.740Z,13.83
2018-11-04T17:36:47.065Z,15.27
2018-11-04T17:38:53.346Z,13.77
2018-11-04T17:40:59.424Z,14.23
2018-11-04T17:43:08.081Z,13.27
2018-11-04T17:45:16.326Z,13.77
2018-11-04T17:47:24.115Z,14.57
2018-11-04T17:49:32.397Z,13.77
2018-11-04T17:51:39.096Z,13.97
2018-11-04T17:53:44.685Z,13.83
2018-11-04T17:55:50.239Z,13.57
2018-11-04T17:57:56.528Z,14.53
2018-11-04T18:00:02.196Z,13.70
2018-11-04T18:02:12.332Z,13.03
2018-11-04T18:04:17.776Z,16.70
2018-11-04T18:06:23.606Z,14.67
2018-11-04T18:08:28.436Z,15.70
2018-11-04T18:10:36.743Z,13.07
2018-11-04T18:12:46.064Z,13.30
2018-11-04T18:14:51.637Z,14.13
2018-11-04T18:16:57.101Z,14.60
2018-11-04T18:19:02.686Z,12.77
2018-11-04T18:21:08.325Z,14.03
2018-11-04T18:23:15.124Z,14.77
2018-11-04T18:25:21.272Z,13.17
2018-11-04T18:27:25.979Z,12.77
2018-11-04T18:29:33.722Z,14.97
2018-11-04T18:31:38.651Z,12.73
2018-11-04T18:33:46.595Z,12.93
2018-11-04T18:35:51.213Z,12.73
2018-11-04T18:37:55.163Z,12.93
2018-11-04T18:39:59.207Z,14.60
2018-11-04T18:42:04.417Z,12.97
2018-11-04T18:44:09.064Z,13.87
2018-11-04T18:46:13.632Z,12.83
2018-11-04T18:48:17.655Z,14.83
2018-11-04T18:50:21.645Z,14.33
2018-11-04T18:52:25.739Z,14.10
2018-11-04T18:54:29.716Z,13.83
2018-11-04T18:56:33.826Z,14.30
2018-11-04T18:58:40.200Z,14.17
2018-11-04T19:00:45.935Z,14.00
2018-11-04T19:02:50.275Z,14.83
2018-11-04T19:04:55.503Z,14.40
2018-11-04T19:06:59.495Z,14.50
2018-11-04T19:09:04.341Z,14.33
2018-11-04T19:11:10.585Z,14.20
2018-11-04T19:13:16.269Z,13.17
2018-11-04T19:15:25.966Z,15.23
2018-11-04T19:17:30.520Z,16.43
2018-11-04T19:19:35.132Z,14.53
2018-11-04T19:21:40.506Z,13.53
2018-11-04T19:23:44.988Z,13.03
2018-11-04T19:25:50.547Z,14.97
2018-11-04T19:27:55.223Z,14.87
2018-11-04T19:29:59.592Z,14.67
2018-11-04T19:32:05.503Z,15.83
2018-11-04T19:34:11.029Z,15.67
2018-11-04T19:36:15.548Z,13.63
2018-11-04T19:38:21.209Z,14.17
2018-11-04T19:40:25.187Z,14.40
2018-11-04T19:42:31.703Z,13.80
2018-11-04T19:44:40.076Z,13.47
2018-11-04T19:46:44.496Z,15.63
2018-11-04T19:48:49.713Z,14.43
2018-11-04T19:51:01.167Z,14.90
2018-11-04T19:53:05.806Z,13.33
2018-11-04T19:55:11.068Z,14.40
2018-11-04T19:57:16.251Z,14.47
2018-11-04T19:59:27.481Z,14.67
2018-11-04T20:01:33.454Z,14.93
2018-11-04T20:03:40.435Z,13.53
2018-11-04T20:05:48.472Z,15.30
2018-11-04T20:07:55.259Z,14.87
2018-11-04T20:09:59.834Z,16.70
2018-11-04T20:12:05.498Z,15.67
2018-11-04T20:14:15.963Z,15.87
2018-11-04T20:16:22.651Z,15.70
2018-11-04T20:20:39.712Z,14.93
2018-11-04T20:22:45.335Z,15.00
2018-11-04T20:24:55.475Z,13.90
2018-11-04T20:26:59.456Z,14.07
2018-11-04T20:29:04.048Z,14.53
2018-11-04T20:33:20.210Z,14.30
2018-11-04T20:35:28.655Z,13.07
2018-11-04T20:37:34.392Z,14.23
2018-11-04T20:39:43.996Z,15.13
2018-11-04T20:41:55.051Z,16.07
2018-11-04T20:46:15.220Z,14.77
2018-11-04T20:48:28.908Z,14.57
2018-11-04T20:50:37.978Z,14.90
2018-11-04T20:52:41.990Z,14.90
2018-11-04T20:54:46.098Z,14.87
2018-11-04T20:56:55.775Z,15.20
2018-11-04T20:59:02.524Z,16.00
2018-11-04T21:01:08.292Z,14.70
2018-11-04T21:03:12.319Z,15.30
2018-11-04T21:05:16.838Z,14.70
2018-11-04T21:07:36.236Z,14.53
2018-11-04T21:09:42.339Z,15.20
2018-11-04T21:11:47.508Z,14.10
2018-11-04T21:13:52.400Z,14.40
2018-11-04T21:15:57.328Z,14.13
2018-11-04T21:18:03.426Z,14.40
2018-11-04T21:20:11.327Z,16.00
2018-11-04T21:22:15.323Z,15.67
2018-11-04T21:24:20.509Z,16.23
2018-11-04T21:26:24.539Z,15.47
2018-11-04T21:28:29.302Z,14.97
2018-11-04T21:30:33.776Z,14.47
2018-11-04T21:32:39.635Z,16.90
2018-11-04T21:34:49.409Z,16.27
2018-11-04T21:36:53.405Z,15.17
2018-11-04T21:38:57.815Z,15.63
2018-11-04T21:41:02.583Z,15.37
2018-11-04T21:43:06.810Z,15.03
2018-11-04T21:45:14.453Z,15.90
2018-11-04T21:47:19.389Z,15.80
2018-11-04T21:49:23.445Z,15.20
2018-11-04T21:51:30.016Z,20.43
2018-11-04T21:53:37.249Z,16.80
2018-11-04T21:55:42.474Z,16.33
2018-11-04T21:57:47.530Z,17.93
2018-11-04T21:59:51.780Z,17.67
2018-11-04T22:01:55.783Z,15.47
2018-11-04T22:04:01.933Z,15.40
2018-11-04T22:06:06.064Z,17.83
2018-11-04T22:08:10.060Z,16.53
2018-11-04T22:10:15.378Z,14.90
2018-11-04T22:12:23.010Z,16.40
2018-11-04T22:14:29.080Z,15.03
2018-11-04T22:16:34.585Z,16.30
2018-11-04T22:18:39.441Z,17.37
2018-11-04T22:20:50.360Z,14.83
2018-11-04T22:22:54.337Z,15.60
2018-11-04T22:24:59.155Z,16.57
2018-11-04T22:27:03.489Z,15.57
2018-11-04T22:29:07.553Z,16.23
2018-11-04T22:31:15.988Z,17.27
2018-11-04T22:33:23.929Z,16.17
2018-11-04T22:35:27.895Z,15.87
2018-11-04T22:37:31.853Z,15.67
2018-11-04T22:39:36.427Z,16.37
2018-11-04T22:41:40.908Z,15.27
2018-11-04T22:43:49.423Z,15.37
2018-11-04T22:45:55.707Z,18.60
2018-11-04T22:48:00.548Z,17.57
2018-11-04T22:50:05.401Z,16.33
2018-11-04T22:52:09.316Z,17.23
2018-11-04T22:54:14.035Z,17.07
2018-11-04T22:56:20.105Z,15.20
2018-11-04T22:58:24.438Z,15.87
2018-11-04T23:00:33.772Z,15.17
2018-11-04T23:02:44.566Z,16.17
2018-11-04T23:04:54.586Z,16.83
2018-11-04T23:06:59.231Z,16.23
2018-11-04T23:09:04.124Z,15.10
2018-11-04T23:11:09.172Z,18.03
2018-11-04T23:13:20.083Z,16.90
2018-11-04T23:15:24.943Z,15.93
2018-11-04T23:17:29.078Z,16.37
2018-11-04T23:19:39.684Z,17.90
2018-11-04T23:21:45.420Z,18.57
2018-11-04T23:23:50.376Z,16.50
2018-11-04T23:25:55.120Z,16.50
2018-11-04T23:27:59.072Z,15.87
2018-11-04T23:30:18.963Z,16.53
2018-11-04T23:32:22.862Z,16.23
2018-11-04T23:34:27.880Z,17.00
2018-11-04T23:36:32.643Z,17.23
2018-11-04T23:38:37.248Z,16.33
2018-11-04T23:40:41.313Z,18.37
2018-11-04T23:42:45.571Z,15.23
2018-11-04T23:44:50.162Z,15.67
2018-11-04T23:46:54.439Z,17.23
2018-11-04T23:48:58.363Z,15.67
2018-11-04T23:51:02.639Z,17.80
2018-11-04T23:53:06.597Z,15.87
2018-11-04T23:55:11.493Z,16.47
2018-11-04T23:57:15.847Z,16.63
2018-11-04T23:59:19.810Z,16.07
